Latest Coastal Weather Observations for Bunbury

IDW60701

Issued at 6:12 am WST Wednesday 29 June 2016 (issued every 10 minutes, with the page automatically refreshed every 10 minutes)

About coastal observations | Map of coastal stations | Coastal observations for WA | Marine services | Other Formats
Station Details ID: 009965 Name: BUNBURY Lat: -33.36 Lon: 115.64 Height: 5.2 m
Data from the previous 72 hours. | See also: Recent months at Bunbury
Date/Time
WST
Temp
°C
Wind Pressure Rain since
9am
mm
Weather Cloud Vis
km
Sea
Height
m
Swell
Dir  Spd
kts
Gust
kts
hPa Trend Height
m
Period
s
Dir
29/06:00am 14.7 SW 5 9 1014.3 - 9.0 - - - - - - -
29/05:30am 15.6 WSW 8 14 1013.9 - 9.0 - - - - - - -
29/05:00am 15.2 WSW 5 9 1013.6 - 9.0 - - - - - - -
29/04:30am 15.0 WSW 7 12 1013.5 - 9.0 - - - - - - -
29/04:00am 15.4 W 8 13 1013.3 - 9.0 - - - - - - -
29/03:30am 15.6 W 9 16 1013.2 - 9.0 - - - - - - -
29/03:00am 15.3 W 6 10 1013.1 - 9.0 - - - - - - -
29/02:30am 15.2 W 6 10 1013.2 - 9.0 - - - - - - -
29/02:00am 15.1 W 6 11 1012.9 - 9.0 - - - - - - -
29/01:30am 15.0 W 6 8 1012.8 - 9.0 - - - - - - -
29/01:00am 14.9 W 5 8 1012.7 - 9.0 - - - - - - -
29/12:30am 14.8 W 6 10 1012.9 - 9.0 - - - - - - -
29/12:00am 14.6 W 5 7 1012.8 - 9.0 - - - - - - -
 
Date/Time
WST
Temp
°C
Wind Pressure Rain since
9am
mm
Weather Cloud Vis
km
Sea
Height
m
Swell
Dir  Spd
kts
Gust
kts
hPa Trend Height
m
Period
s
Dir
28/11:30pm 14.9 W 6 10 1012.9 - 9.0 - - - - - - -
28/11:00pm 15.0 W 6 11 1012.7 - 9.0 - - - - - - -
28/10:30pm 14.8 W 5 8 1012.4 - 9.0 - - - - - - -
28/10:00pm 14.8 W 5 7 1012.5 - 9.0 - - - - - - -
28/09:30pm 14.8 W 4 7 1012.6 - 9.0 - - - - - - -
28/09:00pm 14.5 W 4 7 1012.5 - 9.0 - - - - - - -
28/08:30pm 14.6 W 4 6 1012.4 - 9.0 - - - - - - -
28/08:00pm 14.7 SW 4 5 1012.2 - 9.0 - - - - - - -
28/07:30pm 14.9 WSW 3 5 1012.0 - 9.0 - - - - - - -
28/07:00pm 15.6 WSW 6 11 1011.8 - 9.0 - - - - - - -
28/06:30pm 15.9 WSW 5 10 1011.3 - 8.0 - - - - - - -
28/06:00pm 15.9 W 5 9 1010.9 - 8.0 - - - - - - -
28/05:30pm 16.4 W 5 8 1010.6 - 8.0 - - - - - - -
28/05:00pm 17.0 W 4 5 1010.4 - 8.0 - - - - - - -
28/04:30pm 17.1 WSW 3 5 1010.2 - 8.0 - - - - - - -
28/04:00pm 17.2 WNW 6 9 1009.9 - 8.0 - - - - - - -
28/03:30pm 18.1 WNW 8 11 1009.5 - 8.0 - - - - - - -
28/03:00pm 18.1 WNW 8 12 1009.5 - 8.0 - - - - - - -
28/02:30pm 17.8 WNW 6 10 1009.5 - 8.0 - - - - - - -
28/02:00pm 16.6 N 5 8 1009.5 - 8.0 - - - - - - -
28/01:30pm 16.5 N 7 9 1009.6 - 8.0 - - - - - - -
28/01:00pm 15.8 N 7 10 1009.8 - 8.0 - - - - - - -
28/12:30pm 15.3 N 8 13 1010.2 - 8.0 - - - - - - -
28/12:00pm 14.8 N 5 8 1010.8 - 8.0 - - - - - - -
28/11:30am 13.9 N 5 8 1011.4 - 8.0 - - - - - - -
28/11:00am 13.5 NE 5 7 1011.3 - 8.0 - - - - - - -
28/10:30am 12.7 NE 5 7 1011.6 - 7.0 - - - - - - -
28/10:00am 12.5 NNE 5 6 1011.9 - 4.8 - - - - - - -
28/09:30am 12.3 NNE 6 11 1012.1 - 3.2 - - - - - - -
28/09:00am 12.2 NE 4 6 1011.6 - 15.0 Rain - - - - - -
28/08:30am 12.4 WSW 2 3 1011.6 - 10.8 - - - - - - -
28/08:00am 11.9 NNE 6 8 1011.8 - 6.8 - - - - - - -
28/07:30am 11.8 NE 6 9 1011.1 - 5.4 - - - - - - -
28/07:00am 12.1 NNE 7 10 1011.1 - 5.0 - - - - - - -
28/06:30am 12.2 N 9 15 1011.0 - 4.6 - - - - - - -
28/06:00am 11.9 NNE 5 9 1010.9 - 3.4 Rain - - - - - -
28/05:30am 11.5 NE 6 9 1010.8 - 2.0 - - - - - - -
28/05:00am 10.6 NE 4 6 1010.9 - 2.0 - - - - - - -
28/04:30am 11.0 ENE 3 5 1011.0 - 1.8 - - - - - - -
28/04:00am 12.1 NNE 6 10 1011.0 - 0.0 - - - - - - -
28/03:30am 11.9 NNE 6 9 1011.4 - 0.0 - - - - - - -
28/03:00am 10.6 NE 5 6 1011.6 - 0.0 - - - - - - -
28/02:30am 10.8 NE 6 9 1011.9 - 0.0 - - - - - - -
28/02:00am 11.0 NNE 5 8 1011.9 - 0.0 - - - - - - -
28/01:30am 11.2 NE 7 11 1012.0 - 0.0 - - - - - - -
28/01:00am 10.9 NNE 5 8 1012.6 - 0.0 - - - - - - -
28/12:30am 11.1 NNE 5 7 1013.1 - 0.0 - - - - - - -
28/12:00am 11.3 NNE 4 8 1013.5 - 0.0 - - - - - - -
 
Date/Time
WST
Temp
°C
Wind Pressure Rain since
9am
mm
Weather Cloud Vis
km
Sea
Height
m
Swell
Dir  Spd
kts
Gust
kts
hPa Trend Height
m
Period
s
Dir
27/11:30pm 11.6 NNE 5 8 1013.7 - 0.0 - - - - - - -
27/11:00pm 11.6 NNE 6 7 1014.0 - 0.0 - - - - - - -
27/10:30pm 11.7 NNE 6 10 1014.1 - 0.0 - - - - - - -
27/10:00pm 11.4 NNE 4 6 1014.4 - 0.0 - - - - - - -
27/09:30pm 11.1 NNE 5 7 1014.6 - 0.0 - - - - - - -
27/09:00pm 11.3 NE 4 6 1014.7 - 0.0 - - - - - - -
27/08:30pm 11.9 NE 6 9 1014.8 - 0.0 - - - - - - -
27/08:00pm 12.6 NE 5 9 1015.0 - 0.0 - - - - - - -
27/07:30pm 13.6 NNE 7 11 1015.1 - 0.0 - - - - - - -
27/07:00pm 13.5 NNE 7 10 1015.3 - 0.0 - - - - - - -
27/06:30pm 13.8 NNE 8 12 1015.0 - 0.0 - - - - - - -
27/06:00pm 14.4 NNE 8 11 1014.9 - 0.0 - - - - - - -
27/05:30pm 15.0 N 10 15 1014.7 - 0.0 - - - - - - -
27/05:00pm 15.3 N 12 18 1014.6 - 0.0 - - - - - - -
27/04:30pm 15.5 N 11 17 1014.8 - 0.0 - - - - - - -
27/04:00pm 15.4 N 12 19 1015.1 - 0.0 - - - - - - -
27/03:30pm 16.0 N 14 19 1015.0 - 0.0 - - - - - - -
27/03:00pm 16.2 N 15 21 1015.1 - 0.0 - - - - - - -
27/02:30pm 16.2 N 15 22 1015.0 - 0.0 - - - - - - -
27/02:00pm 16.5 N 15 22 1015.2 - 0.0 - - - - - - -
27/01:30pm 15.7 N 16 24 1015.7 - 0.0 - - - - - - -
27/01:00pm 15.9 N 16 23 1016.2 - 0.0 - - - - - - -
27/12:30pm 15.1 N 17 25 1016.7 - 0.0 - - - - - - -
27/12:00pm 14.4 N 14 24 1017.4 - 0.0 - - - - - - -
27/11:30am 14.3 N 16 25 1017.9 - 0.0 - - - - - - -
27/11:00am 13.9 N 13 21 1018.3 - 0.0 - - - - - - -
27/10:30am 13.5 N 12 19 1018.7 - 0.0 - - - - - - -
27/10:00am 13.1 N 11 17 1019.0 - 0.0 - - - - - - -
27/09:30am 13.5 NNE 10 16 1019.0 - 0.0 - - - - - - -
27/09:00am 13.0 NNE 11 17 1018.9 - 0.2 - - - - - - -
27/08:30am 12.2 NNE 10 17 1018.9 - 0.2 - - - - - - -
27/08:00am 12.1 N 10 16 1019.0 - 0.2 - - - - - - -
27/07:30am 11.6 N 10 18 1019.0 - 0.2 - - - - - - -
27/07:00am 11.8 NNE 10 17 1018.9 - 0.2 - - - - - - -
27/06:30am 12.2 NNE 11 18 1018.7 - 0.2 - - - - - - -
27/06:00am 12.4 NNE 9 15 1018.8 - 0.2 - - - - - - -
27/05:30am 12.4 NNE 8 12 1018.8 - 0.2 - - - - - - -
27/05:00am 12.3 NNE 8 12 1018.8 - 0.2 - - - - - - -
27/04:30am 12.2 NNE 8 12 1018.8 - 0.2 - - - - - - -
27/04:00am 11.6 NNE 5 8 1019.0 - 0.2 - - - - - - -
27/03:30am 12.2 NE 5 9 1019.2 - 0.2 - - - - - - -
27/03:00am 13.6 NNE 7 10 1019.3 - 0.2 - - - - - - -
27/02:30am 16.3 NNW 9 15 1019.4 - 0.2 - - - - - - -
27/02:00am 16.1 NNW 8 12 1019.5 - 0.2 - - - - - - -
27/01:30am 16.3 NNW 9 13 1019.6 - 0.2 - - - - - - -
27/01:00am 16.0 NNW 9 14 1019.9 - 0.2 - - - - - - -
27/12:30am 15.9 NNW 7 11 1020.1 - 0.2 - - - - - - -
27/12:00am 15.9 NNW 8 11 1020.6 - 0.2 - - - - - - -
 
Date/Time
WST
Temp
°C
Wind Pressure Rain since
9am
mm
Weather Cloud Vis
km
Sea
Height
m
Swell
Dir  Spd
kts
Gust
kts
hPa Trend Height
m
Period
s
Dir
26/11:30pm 15.9 NNW 9 13 1021.1 - 0.2 - - - - - - -
26/11:00pm 15.8 NNW 8 11 1021.2 - 0.2 - - - - - - -
26/10:30pm 15.5 NNW 7 12 1021.4 - 0.2 - - - - - - -
26/10:00pm 15.8 NW 7 12 1021.6 - 0.2 - - - - - - -
26/09:30pm 16.0 NW 8 12 1021.8 - 0.2 - - - - - - -
26/09:00pm 15.8 NW 7 11 1021.9 - 0.2 - - - - - - -
26/08:30pm 16.0 NW 8 12 1021.8 - 0.2 - - - - - - -
26/08:00pm 15.9 WNW 8 13 1021.8 - 0.2 - - - - - - -
26/07:30pm 15.2 NW 6 10 1021.9 - 0.2 - - - - - - -
26/07:00pm 15.6 WNW 7 11 1022.0 - 0.2 - - - - - - -
26/06:30pm 15.6 WNW 6 9 1021.9 - 0.2 - - - - - - -
26/06:00pm 15.5 NW 5 9 1021.8 - 0.2 - - - - - - -
26/05:30pm 15.2 W 3 5 1021.8 - 0.2 - - - - - - -
26/05:00pm 15.5 W 6 9 1022.0 - 0.2 - - - - - - -
26/04:30pm 16.8 WNW 5 10 1022.0 - 0.2 - - - - - - -
26/04:00pm 16.2 NW 7 11 1022.0 - 0.2 - - - - - - -
26/03:30pm 16.3 NW 7 11 1022.1 - 0.2 - - - - - - -
26/03:00pm 16.1 NW 7 9 1022.0 - 0.2 - - - - - - -
26/02:30pm 16.5 NW 9 12 1022.1 - 0.2 - - - - - - -
26/02:00pm 17.4 NW 9 13 1022.4 - 0.2 - - - - - - -
26/01:30pm 16.7 NW 9 12 1022.7 - 0.2 - - - - - - -
26/01:00pm 17.2 NW 10 13 1022.9 - 0.2 - - - - - - -
26/12:30pm 17.3 WNW 10 15 1023.4 - 0.0 - - - - - - -
26/12:00pm 17.2 WNW 9 16 1023.9 - 0.0 - - - - - - -
26/11:30am 16.8 WSW 4 8 1024.4 - 0.0 - - - - - - -
26/11:00am 16.0 ENE 2 4 1024.7 - 0.0 - - - - - - -
26/10:30am 13.8 ENE 4 6 1024.8 - 0.0 - - - - - - -
26/10:00am 12.2 NE 4 7 1025.0 - 0.0 - - - - - - -
26/09:30am 11.4 NE 4 5 1025.0 - 0.0 - - - - - - -
26/09:00am 10.7 NNE 4 7 1024.8 - 0.0 - - - - - - -
26/08:30am 8.6 NE 2 5 1024.8 - 0.0 - - - - - - -
26/08:00am 5.3 NE 3 4 1024.5 - 0.0 - - - - - - -
26/07:30am 5.0 ENE 2 3 1024.5 - 0.0 - - - - - - -
26/07:00am 5.8 ENE 3 4 1024.3 - 0.0 - - - - - - -
26/06:30am 5.8 ENE 2 3 1024.2 - 0.0 - - - - - - -

Other Formats:

Comma delimited format used in spreadsheet applications
http://www.bom.gov.au/fwo/IDW60701/IDW60701.94604.axf

JavaScript Object Notation format (JSON) in row-major order
http://www.bom.gov.au/fwo/IDW60701/IDW60701.94604.json